Time;durP1;ratioP1;P1;durP2;ratioP2;P2;SDS_P1;SDS_P2;PMS_P1;PMS_P2;Temp;Humidity;BMP_temperature;BMP_pressure;BME280_temperature;BME280_humidity;BME280_pressure;Samples;Min_cycle;Max_cycle;Signal;HPM_P1;HPM_P2
2023/09/25 11:17:55;;;;;;;;;;;;;;;19.97;68.47;102105.25;754737;23;21433;-96
2023/09/25 11:20:29;;;;;;;;;;;;;;;20.12;67.72;102101.78;4915639;29;20313;-96
2023/09/25 11:23:03;;;;;;;;;;;;;;;20.30;67.04;102106.25;4908063;29;19959;-96
2023/09/25 11:25:41;;;;;;;;;;;;;;;20.42;67.50;102108.06;4924357;29;20314;-96
2023/09/25 11:28:12;;;;;;;;;;;;;;;20.44;63.98;102114.25;4909198;29;19965;-96
2023/09/25 11:30:48;;;;;;;;;;;;;;;;;;;;;
2023/09/25 11:33:20;;;;;;;;;;;;;;;20.45;67.32;102107.19;4907784;29;19994;-96
2023/09/25 11:35:54;;;;;;;;;;;;;;;20.59;66.26;102118.69;4896510;29;19958;-96
2023/09/25 11:38:30;;;;;;;;;;;;;;;20.72;66.45;102105.50;4908994;29;19903;-96
2023/09/25 11:40:55;;;;;;;;;;;;;;;20.80;62.65;102109.06;4902481;29;20050;-96
2023/09/25 11:43:23;;;;;;;;;;;;;;;20.70;66.07;102109.91;4901679;29;19923;-96
2023/09/25 11:45:49;;;;;;;;;;;;;;;20.69;61.51;102109.03;4904385;29;19923;-96
2023/09/25 11:48:26;;;;;;;;;;;;;;;20.59;63.44;102115.16;4917129;29;19915;-96
2023/09/25 11:50:57;;;;;;;;;;;;;;;20.69;63.09;102108.16;4900785;29;19922;-96
2023/09/25 11:53:33;;;;;;;;;;;;;;;20.86;65.61;102109.06;4904732;29;20326;-96
2023/09/25 11:55:59;;;;;;;;;;;;;;;20.88;62.59;102112.59;4902322;29;20080;-96
2023/09/25 11:58:28;;;;;;;;;;;;;;;20.60;61.58;102106.34;4896800;29;19963;-96
2023/09/25 12:01:03;;;;;;;;;;;;;;;20.41;63.13;102116.00;4911560;29;19954;-96
2023/09/25 12:03:38;;;;;;;;;;;;;;;20.33;64.88;102119.53;4884721;29;20279;-96
2023/09/25 12:06:06;;;;;;;;;;;;;;;20.33;63.81;102116.88;4901670;29;19933;-96
2023/09/25 12:08:35;;;;;;;;;;;;;;;20.33;65.28;102119.53;4909832;29;20002;-96
2023/09/25 12:11:02;;;;;;;;;;;;;;;20.44;66.61;102119.53;4887289;29;20449;-96
2023/09/25 12:13:41;;;;;;;;;;;;;;;20.65;66.24;102118.72;4901062;29;19919;-96
2023/09/25 12:16:15;;;;;;;;;;;;;;;20.92;63.27;102129.38;4903258;29;19920;-96
2023/09/25 12:18:40;;;;;;;;;;;;;;;21.05;65.05;102125.00;4909411;29;19962;-96
2023/09/25 12:21:08;;;;;;;;;;;;;;;21.17;63.83;102130.28;4907137;29;19918;-96
2023/09/25 12:23:47;;;;;;;;;;;;;;;;;;;;;
2023/09/25 12:26:18;;;;;;;;;;;;;;;21.37;62.58;102139.09;4934636;29;19919;-96
2023/09/25 12:29:03;;;;;;;;;;;;;;;21.44;62.95;102133.81;4927768;29;19919;-96
2023/09/25 12:31:31;;;;;;;;;;;;;;;21.47;60.50;102128.50;4932890;29;19950;-96
2023/09/25 12:34:04;;;;;;;;;;;;;;;21.36;62.71;102139.09;4933907;29;19919;-96
2023/09/25 12:36:50;;;;;;;;;;;;;;;21.39;63.10;102140.88;4903549;29;19954;-96
2023/09/25 12:39:23;;;;;;;;;;;;;;;21.44;63.53;102139.13;4916775;29;19914;-96
2023/09/25 12:41:58;;;;;;;;;;;;;;;21.58;63.16;102139.13;4939353;29;19921;-96
2023/09/25 12:44:27;;;;;;;;;;;;;;;21.66;64.45;102134.69;4910002;29;19915;-96
2023/09/25 12:47:00;;;;;;;;;;;;;;;21.80;63.36;102130.25;4941779;29;19911;-96
2023/09/25 12:49:28;;;;;;;;;;;;;;;21.98;62.89;102125.75;4928965;29;20005;-96
2023/09/25 12:51:54;;;;;;;;;;;;;;;22.16;61.12;102127.44;4942074;29;19969;-96
2023/09/25 12:54:19;;;;;;;;;;;;;;;22.09;61.07;102123.06;4914551;29;19959;-96
2023/09/25 12:56:45;;;;;;;;;;;;;;;21.95;61.75;102118.69;4931612;29;19919;-96
2023/09/25 12:59:10;;;;;;;;;;;;;;;21.83;64.24;102124.91;4920185;29;19919;-96
2023/09/25 13:01:40;;;;;;;;;;;;;;;21.96;63.47;102123.13;4940439;29;19950;-96
2023/09/25 13:04:15;;;;;;;;;;;;;;;22.05;63.61;102133.69;4929089;29;19962;-96
2023/09/25 13:06:53;;;;;;;;;;;;;;;22.22;62.89;102132.75;4931204;29;19915;-96
2023/09/25 13:09:24;;;;;;;;;;;;;;;22.16;61.82;102127.44;4933645;29;19970;-96
2023/09/25 13:11:50;;;;;;;;;;;;;;;22.50;62.33;102124.69;4939248;29;20005;-96
2023/09/25 13:14:18;;;;;;;;;;;;;;;22.56;61.05;102124.63;4940202;29;20444;-96
2023/09/25 13:16:46;;;;;;;;;;;;;;;22.65;60.47;102124.59;4929200;29;19978;-96
2023/09/25 13:19:16;;;;;;;;;;;;;;;22.74;61.50;102116.56;4922428;29;20018;-96
2023/09/25 13:22:08;;;;;;;;;;;;;;;22.77;61.18;102117.41;4914535;29;19915;-96
2023/09/25 13:24:35;;;;;;;;;;;;;;;22.75;60.87;102120.09;4932762;29;19915;-96
2023/09/25 13:27:01;;;;;;;;;;;;;;;22.79;59.75;102126.28;4929830;29;19911;-96
2023/09/25 13:29:39;;;;;;;;;;;;;;;22.95;60.93;102116.41;4936127;29;19915;-96
2023/09/25 13:32:05;;;;;;;;;;;;;;;22.91;58.92;102112.88;4921984;29;19923;-96
2023/09/25 13:34:43;;;;;;;;;;;;;;;;;;;;;
2023/09/25 13:37:11;;;;;;;;;;;;;;;22.71;59.88;102105.03;4943884;29;19983;-96
2023/09/25 13:40:00;;;;;;;;;;;;;;;23.11;59.19;102106.56;4918575;29;19919;-96
2023/09/25 13:42:26;;;;;;;;;;;;;;;23.23;58.91;102095.81;4900668;29;20137;-96
2023/09/25 13:50:22;;;;;;;;;;;;;;;23.11;59.92;102095.94;5175553;23;19973;-96
2023/09/25 13:52:56;;;;;;;;;;;;;;;23.42;59.83;102102.72;4954506;28;19946;-96
2023/09/25 13:55:24;;;;;;;;;;;;;;;23.52;57.05;102105.28;4951646;29;19921;-96
2023/09/25 13:57:58;;;;;;;;;;;;;;;23.34;57.59;102098.38;4942527;29;19915;-96
2023/09/25 14:00:25;;;;;;;;;;;;;;;23.19;57.71;102110.91;4927898;29;19915;-96
2023/09/25 14:02:57;;;;;;;;;;;;;;;23.14;59.50;102106.53;4923778;29;19921;-96
2023/09/25 14:05:31;;;;;;;;;;;;;;;23.21;59.50;102094.94;4939275;29;20388;-96
2023/09/25 14:08:04;;;;;;;;;;;;;;;23.23;57.00;102090.50;4941239;29;19977;-96
2023/09/25 14:10:38;;;;;;;;;;;;;;;23.02;58.17;102086.22;4932628;29;20266;-96
2023/09/25 14:13:04;;;;;;;;;;;;;;;22.86;56.35;102088.13;4946638;29;19966;-96
2023/09/25 14:15:39;;;;;;;;;;;;;;;22.67;58.56;102090.91;4941179;29;19946;-96
2023/09/25 14:18:06;;;;;;;;;;;;;;;22.87;59.55;102088.13;4940753;29;19915;-96
2023/09/25 14:20:37;;;;;;;;;;;;;;;23.14;58.58;102082.59;4936013;29;19915;-96
2023/09/25 14:23:03;;;;;;;;;;;;;;;23.38;56.72;102084.16;4925547;29;19919;-96
2023/09/25 14:25:34;;;;;;;;;;;;;;;23.55;57.57;102081.31;4927650;29;19919;-96
2023/09/25 14:28:02;;;;;;;;;;;;;;;23.52;57.31;102084.91;4932605;29;19914;-96
2023/09/25 14:30:35;;;;;;;;;;;;;;;23.27;56.32;102087.81;4929989;29;20373;-96
2023/09/25 14:33:03;;;;;;;;;;;;;;;23.10;58.33;102076.38;4932329;29;19925;-96
2023/09/25 14:35:43;;;;;;;;;;;;;;;23.19;58.57;102083.47;4937883;29;19930;-96
2023/09/25 14:38:20;;;;;;;;;;;;;;;23.22;59.08;102070.13;4935946;29;19934;-96
2023/09/25 14:40:56;;;;;;;;;;;;;;;23.39;58.56;102076.16;4932359;29;19919;-96
2023/09/25 14:43:42;;;;;;;;;;;;;;;23.63;57.43;102074.13;4940875;29;20504;-96
2023/09/25 14:46:07;;;;;;;;;;;;;;;23.96;58.26;102083.50;4938419;29;19918;-96
2023/09/25 14:48:35;;;;;;;;;;;;;;;24.13;57.51;102079.78;4952958;29;19973;-96
2023/09/25 14:51:02;;;;;;;;;;;;;;;23.91;54.41;102076.47;4954591;29;19922;-96
2023/09/25 14:53:36;;;;;;;;;;;;;;;23.47;55.71;102078.72;4948065;29;19941;-96
2023/09/25 14:56:04;;;;;;;;;;;;;;;23.44;57.29;102084.97;4937820;29;20001;-96
2023/09/25 14:58:50;;;;;;;;;;;;;;;23.37;58.32;102083.25;4947640;29;19970;-96
2023/09/25 15:01:29;;;;;;;;;;;;;;;23.33;55.88;102075.34;4948429;28;19930;-96
2023/09/25 15:04:03;;;;;;;;;;;;;;;23.20;58.60;102079.88;4959814;28;19933;-96
